Time;durP1;ratioP1;P1;durP2;ratioP2;P2;SDS_P1;SDS_P2;PMS_P1;PMS_P2;Temp;Humidity;BMP_temperature;BMP_pressure;BME280_temperature;BME280_humidity;BME280_pressure;Samples;Min_cycle;Max_cycle;Signal;HPM_P1;HPM_P2
2022/05/26 03:44:54;;;;;;;11.97;11.37;;;12.90;99.90;;;;;;6047104;23;20472;31
2022/05/26 03:47:22;;;;;;;12.23;11.60;;;12.90;99.90;;;;;;4965755;28;20487;-74
2022/05/26 03:49:49;;;;;;;12.17;11.57;;;12.80;99.90;;;;;;4970775;28;20503;-74
2022/05/26 03:52:16;;;;;;;12.83;11.57;;;12.80;99.90;;;;;;4967208;28;20507;-73
2022/05/26 03:54:43;;;;;;;13.37;12.50;;;12.70;99.90;;;;;;4971098;28;20452;-73
2022/05/26 03:57:10;;;;;;;12.47;11.77;;;12.80;99.90;;;;;;4971088;28;20456;-73
2022/05/26 03:59:40;;;;;;;12.23;11.50;;;12.70;99.90;;;;;;4970581;28;20456;-73
2022/05/26 04:02:07;;;;;;;12.10;11.60;;;12.70;99.90;;;;;;4962278;28;20526;-73
2022/05/26 04:04:35;;;;;;;12.20;11.67;;;12.80;99.90;;;;;;4952020;29;20487;-73
2022/05/26 04:07:02;;;;;;;11.60;11.00;;;12.80;99.90;;;;;;4954358;28;20476;-73
2022/05/26 04:09:29;;;;;;;12.30;11.70;;;12.70;99.90;;;;;;4959728;28;20962;-74
2022/05/26 04:11:56;;;;;;;12.10;11.40;;;12.70;99.90;;;;;;4952199;29;20486;-74
2022/05/26 04:14:22;;;;;;;12.10;11.50;;;12.80;99.90;;;;;;4951961;29;20453;-73
2022/05/26 04:16:49;;;;;;;11.60;11.00;;;12.80;99.90;;;;;;4951791;29;20825;-74
2022/05/26 04:19:15;;;;;;;11.30;10.80;;;12.80;99.90;;;;;;4951861;29;20457;-74
2022/05/26 04:24:24;;;;;;;12.57;11.87;;;12.90;99.90;;;;;;4953083;28;20484;-74
2022/05/26 04:26:51;;;;;;;11.80;11.20;;;12.90;99.90;;;;;;4955155;29;20456;-73
2022/05/26 04:29:17;;;;;;;12.13;11.63;;;13.10;99.90;;;;;;4955414;29;20503;-75
2022/05/26 04:31:44;;;;;;;11.10;10.60;;;13.30;99.90;;;;;;4955247;29;20460;-75
2022/05/26 04:34:11;;;;;;;11.07;10.60;;;13.70;99.90;;;;;;4955367;29;20455;-74
2022/05/26 04:36:37;;;;;;;11.57;10.97;;;14.20;99.90;;;;;;4955234;29;20495;-74
2022/05/26 04:39:05;;;;;;;11.23;10.53;;;14.60;99.90;;;;;;4955280;29;20461;-75
2022/05/26 04:41:32;;;;;;;12.53;11.33;;;15.20;99.90;;;;;;4955316;29;20456;-73
2022/05/26 04:43:59;;;;;;;13.53;11.20;;;15.60;99.90;;;;;;4960161;28;20490;-72
2022/05/26 04:46:26;;;;;;;12.67;11.50;;;15.90;99.90;;;;;;4974109;28;21004;-72
2022/05/26 04:48:52;;;;;;;10.97;10.57;;;16.00;99.90;;;;;;4974571;28;20467;-73
2022/05/26 04:51:19;;;;;;;11.47;10.77;;;16.20;99.90;;;;;;4974330;28;20866;-74
2022/05/26 04:53:46;;;;;;;11.00;10.40;;;16.50;99.90;;;;;;4974188;28;20523;-74
2022/05/26 04:56:14;;;;;;;10.77;10.20;;;16.90;99.90;;;;;;4974032;28;20486;-74
2022/05/26 04:58:40;;;;;;;10.70;10.20;;;17.30;99.90;;;;;;4974292;28;20949;-74
2022/05/26 05:01:12;;;;;;;10.80;10.20;;;17.50;99.90;;;;;;4974243;28;20802;-74
2022/05/26 05:03:39;;;;;;;11.40;10.90;;;18.00;99.90;;;;;;4974205;28;20458;-74
2022/05/26 05:06:06;;;;;;;10.90;10.20;;;18.20;99.90;;;;;;4973922;28;20542;-75
2022/05/26 05:08:33;;;;;;;10.70;10.30;;;18.40;99.90;;;;;;4979609;28;20953;-74
2022/05/26 05:11:00;;;;;;;10.77;10.37;;;18.60;99.90;;;;;;4978520;28;20459;-74
2022/05/26 05:13:28;;;;;;;11.40;10.70;;;18.80;99.80;;;;;;4974165;28;20459;-74
2022/05/26 05:16:00;;;;;;;10.33;9.73;;;18.80;99.90;;;;;;4974313;28;20491;-74
2022/05/26 05:18:26;;;;;;;10.03;9.30;;;18.80;99.40;;;;;;4973839;28;20479;-75
2022/05/26 05:20:57;;;;;;;10.30;9.60;;;18.90;99.40;;;;;;4974008;28;20467;-74
2022/05/26 05:23:24;;;;;;;10.20;9.70;;;19.00;99.20;;;;;;4973841;28;20519;-78
2022/05/26 05:25:53;;;;;;;10.50;10.00;;;19.20;98.60;;;;;;4973667;28;20498;-75
2022/05/26 05:28:23;;;;;;;10.17;9.67;;;19.50;98.30;;;;;;4973427;28;20850;-73
2022/05/26 05:30:55;;;;;;;10.33;9.93;;;19.90;96.70;;;;;;4973844;28;20451;-77
2022/05/26 05:33:26;;;;;;;10.57;10.00;;;20.50;95.90;;;;;;4973811;28;20456;-75
2022/05/26 05:35:56;;;;;;;10.60;10.20;;;21.30;94.10;;;;;;4972811;28;20769;-73
2022/05/26 05:38:23;;;;;;;10.80;10.40;;;21.80;92.30;;;;;;4973984;28;20462;-76
2022/05/26 05:40:50;;;;;;;10.70;10.20;;;22.30;91.20;;;;;;4973209;28;20459;-75
2022/05/26 05:43:17;;;;;;;10.30;9.90;;;22.20;90.60;;;;;;4973527;28;20451;-75
2022/05/26 05:45:44;;;;;;;10.40;9.80;;;21.90;90.80;;;;;;4973012;28;20515;-75
2022/05/26 05:48:12;;;;;;;10.93;10.33;;;22.10;90.70;;;;;;4973219;28;20518;-76
2022/05/26 05:50:39;;;;;;;10.50;10.00;;;22.30;90.00;;;;;;4973565;28;20953;-79
2022/05/26 05:53:06;;;;;;;10.17;9.70;;;22.70;90.00;;;;;;4974078;28;20487;-76
2022/05/26 05:55:33;;;;;;;10.07;9.60;;;22.40;87.90;;;;;;4973546;28;20436;-76
2022/05/26 05:57:59;;;;;;;10.20;9.70;;;22.70;86.10;;;;;;4973265;28;20460;-77
2022/05/26 06:00:26;;;;;;;10.10;9.80;;;23.20;84.30;;;;;;4973202;28;20451;-77
2022/05/26 06:02:53;;;;;;;11.40;10.60;;;23.50;83.10;;;;;;4973135;28;20460;-79
2022/05/26 06:05:21;;;;;;;10.57;10.17;;;24.20;80.30;;;;;;4973433;28;20542;-79
2022/05/26 06:07:49;;;;;;;10.00;9.50;;;24.40;78.90;;;;;;4973625;28;20460;-81
2022/05/26 06:10:16;;;;;;;10.50;10.10;;;24.50;77.70;;;;;;4984088;28;20466;-85
2022/05/26 06:12:42;;;;;;;10.63;10.23;;;24.80;76.60;;;;;;4974414;28;20471;-76
2022/05/26 06:15:10;;;;;;;10.57;10.07;;;24.50;77.00;;;;;;4973083;28;20506;-76
2022/05/26 06:17:37;;;;;;;10.00;9.60;;;24.10;77.30;;;;;;4973255;28;20514;-75
2022/05/26 06:20:05;;;;;;;9.83;9.43;;;23.70;78.80;;;;;;4972830;28;21009;-79
2022/05/26 06:22:35;;;;;;;9.90;9.50;;;23.10;79.30;;;;;;4972749;28;20455;-75
2022/05/26 06:25:02;;;;;;;10.57;10.07;;;22.50;81.30;;;;;;4972786;28;20546;-76
2022/05/26 06:30:17;;;;;;;9.80;9.20;;;22.20;82.90;;;;;;4972576;28;20442;-77
2022/05/26 06:38:15;;;;;;;9.50;9.20;;;21.40;87.50;;;;;;4972620;28;20430;-77
2022/05/26 06:40:42;;;;;;;9.90;9.50;;;21.50;87.40;;;;;;4973566;28;20958;-83
2022/05/26 06:43:08;;;;;;;9.73;9.33;;;21.60;87.30;;;;;;4973550;28;20459;-85
2022/05/26 06:45:38;;;;;;;9.77;9.27;;;21.20;86.90;;;;;;4973268;28;20502;-82
2022/05/26 06:48:05;;;;;;;10.20;9.90;;;21.00;88.20;;;;;;4973162;28;20459;-75
2022/05/26 06:50:32;;;;;;;9.90;9.50;;;21.00;88.60;;;;;;4972254;28;20459;-75
2022/05/26 06:52:58;;;;;;;9.80;9.40;;;20.80;88.70;;;;;;4972214;28;20828;-75
2022/05/26 06:55:27;;;;;;;9.50;9.10;;;20.70;90.10;;;;;;4972775;28;20448;-74
2022/05/26 06:57:54;;;;;;;11.17;10.30;;;20.90;89.60;;;;;;4973106;28;20515;-77
2022/05/26 07:00:21;;;;;;;9.80;9.50;;;21.00;88.60;;;;;;4973304;28;20471;-77
2022/05/26 07:02:47;;;;;;;10.50;9.90;;;20.90;89.80;;;;;;4972585;28;21146;-78
2022/05/26 07:05:15;;;;;;;9.50;9.10;;;21.20;89.00;;;;;;4971912;28;20904;-79
2022/05/26 07:07:42;;;;;;;10.00;9.50;;;21.20;88.10;;;;;;4973060;28;20555;-81
2022/05/26 07:10:12;;;;;;;9.47;9.00;;;21.30;88.30;;;;;;4972961;28;20459;-81
2022/05/26 07:12:40;;;;;;;9.47;9.10;;;21.50;88.50;;;;;;4972064;28;20459;-80
2022/05/26 07:15:08;;;;;;;9.70;9.40;;;21.60;88.80;;;;;;4971870;28;20451;-82
2022/05/26 07:17:38;;;;;;;9.47;9.17;;;21.80;88.20;;;;;;4969550;28;20901;-75
2022/05/26 07:20:07;;;;;;;9.67;9.37;;;21.70;86.80;;;;;;4971121;28;20619;-76
2022/05/26 07:22:33;;;;;;;9.07;8.57;;;21.60;86.70;;;;;;4969079;28;20963;-76
2022/05/26 07:25:00;;;;;;;10.00;9.70;;;21.60;87.50;;;;;;4970793;28;20492;-76
2022/05/26 07:27:27;;;;;;;10.23;9.83;;;21.90;87.60;;;;;;4971437;28;20855;-76
2022/05/26 07:29:55;;;;;;;9.77;9.37;;;22.20;85.30;;;;;;4969124;28;20464;-76
2022/05/26 07:32:22;;;;;;;9.87;9.57;;;22.30;84.60;;;;;;4970914;28;20456;-74
2022/05/26 07:34:48;;;;;;;10.73;10.30;;;22.60;84.10;;;;;;4970690;28;21103;-75
2022/05/26 07:42:43;;;;;;;10.70;10.10;;;22.70;83.90;;;;;;4970998;28;20952;-74
2022/05/26 07:45:13;;;;;;;9.90;9.50;;;22.80;82.90;;;;;;4970488;28;20498;-74
2022/05/26 07:47:39;;;;;;;10.30;9.90;;;23.30;83.10;;;;;;4969206;28;20874;-75
2022/05/26 07:50:11;;;;;;;10.60;10.20;;;23.80;80.80;;;;;;4970660;28;20459;-75
2022/05/26 07:52:37;;;;;;;10.67;10.27;;;24.30;79.20;;;;;;4970894;28;20460;-74
2022/05/26 07:55:06;;;;;;;10.43;10.13;;;24.10;78.90;;;;;;4970445;28;20788;-74
2022/05/26 07:57:32;;;;;;;10.60;10.20;;;24.30;78.30;;;;;;4970431;28;20460;-75
2022/05/26 07:59:59;;;;;;;10.20;9.80;;;24.60;76.50;;;;;;4973609;28;20976;-74
2022/05/26 08:02:28;;;;;;;10.47;9.93;;;23.90;77.90;;;;;;4974824;28;20456;-77
2022/05/26 08:04:55;;;;;;;10.37;9.97;;;23.70;79.40;;;;;;4974573;28;20479;-76
2022/05/26 08:07:23;;;;;;;10.87;10.27;;;24.30;78.10;;;;;;4974388;28;20921;-75
2022/05/26 08:09:50;;;;;;;9.70;9.40;;;24.70;75.60;;;;;;4974258;28;20459;-75
2022/05/26 08:12:17;;;;;;;10.57;10.07;;;24.70;75.30;;;;;;4974167;28;20510;-75
2022/05/26 08:14:45;;;;;;;9.60;9.30;;;24.50;75.20;;;;;;4974901;28;20483;-75
2022/05/26 08:17:13;;;;;;;10.70;10.30;;;24.50;76.40;;;;;;4975938;28;20451;-76
2022/05/26 08:19:41;;;;;;;9.43;9.13;;;24.30;75.70;;;;;;4975804;28;20950;-77
2022/05/26 08:22:08;;;;;;;9.90;9.60;;;24.50;74.90;;;;;;4975500;28;20460;-76
2022/05/26 08:24:35;;;;;;;10.67;10.17;;;25.10;75.20;;;;;;4974657;28;20456;-75
2022/05/26 08:27:02;;;;;;;10.60;10.30;;;25.60;73.30;;;;;;4974343;28;20452;-75
2022/05/26 08:29:28;;;;;;;10.20;9.80;;;25.10;72.10;;;;;;4974718;28;20953;-76
2022/05/26 08:31:55;;;;;;;9.40;8.87;;;24.30;73.90;;;;;;4974748;28;20863;-75
2022/05/26 08:34:22;;;;;;;10.20;9.80;;;23.90;75.80;;;;;;4974404;28;20941;-77
2022/05/26 08:36:50;;;;;;;10.10;9.70;;;23.70;77.00;;;;;;4974643;28;20475;-76
2022/05/26 08:39:17;;;;;;;9.97;9.47;;;23.50;78.30;;;;;;4974170;28;20456;-76
2022/05/26 08:41:47;;;;;;;9.20;8.80;;;23.30;78.20;;;;;;4974696;28;20452;-76
2022/05/26 08:44:29;;;;;;;10.00;9.30;;;23.40;78.10;;;;;;4974443;28;20467;-75
2022/05/26 08:47:01;;;;;;;9.30;9.00;;;23.20;78.20;;;;;;4974298;28;20483;-75
2022/05/26 08:49:35;;;;;;;9.77;9.17;;;23.20;78.10;;;;;;4974774;28;20459;-76
2022/05/26 08:52:09;;;;;;;9.40;9.00;;;23.10;78.90;;;;;;4973647;28;20511;-76
2022/05/26 08:54:40;;;;;;;9.73;9.40;;;23.20;78.00;;;;;;4973556;28;20949;-76
2022/05/26 08:57:12;;;;;;;9.90;9.50;;;23.40;78.30;;;;;;4973504;28;20451;-75
2022/05/26 08:59:42;;;;;;;9.97;9.57;;;23.40;78.00;;;;;;4973441;28;20455;-76
2022/05/26 09:02:22;;;;;;;9.60;9.30;;;23.40;79.20;;;;;;4973562;28;20456;-75
2022/05/26 09:04:49;;;;;;;9.20;8.90;;;23.70;77.60;;;;;;4973002;28;20462;-76
2022/05/26 09:12:59;;;;;;;9.70;9.30;;;24.50;76.50;;;;;;4971520;28;20431;-77
2022/05/26 09:15:27;;;;;;;10.13;9.70;;;25.10;75.90;;;;;;4973308;28;20507;-77
2022/05/26 09:17:53;;;;;;;9.70;9.30;;;25.50;73.20;;;;;;4973461;28;21016;-76
2022/05/26 09:20:31;;;;;;;10.10;9.40;;;25.90;72.00;;;;;;4973183;28;20454;-76
2022/05/26 09:23:14;;;;;;;8.90;8.60;;;25.80;71.60;;;;;;4972962;28;20458;-76
2022/05/26 09:25:46;;;;;;;10.20;9.70;;;26.00;70.60;;;;;;4973173;28;20491;-76
2022/05/26 09:28:13;;;;;;;9.83;9.43;;;25.90;71.10;;;;;;4973431;28;20459;-76
2022/05/26 09:30:40;;;;;;;10.30;10.00;;;26.00;70.80;;;;;;4972949;28;20869;-76
2022/05/26 09:33:27;;;;;;;10.37;9.77;;;26.10;70.00;;;;;;4972926;28;20466;-76
2022/05/26 09:35:53;;;;;;;9.90;9.60;;;25.90;70.90;;;;;;4973015;28;20498;-77
2022/05/26 09:38:32;;;;;;;10.20;9.80;;;25.50;71.90;;;;;;4972859;28;20935;-76
2022/05/26 09:41:07;;;;;;;10.47;9.63;;;24.70;73.30;;;;;;4972773;28;20574;-76
2022/05/26 09:43:34;;;;;;;10.07;9.67;;;24.10;74.30;;;;;;4972529;28;20506;-75
2022/05/26 09:46:14;;;;;;;10.17;9.87;;;23.90;75.50;;;;;;4972147;28;20892;-75
2022/05/26 09:48:41;;;;;;;10.57;10.17;;;23.40;75.80;;;;;;4972781;28;20465;-75
2022/05/26 09:51:12;;;;;;;9.57;9.07;;;22.80;77.30;;;;;;4972370;28;20452;-75
2022/05/26 09:53:42;;;;;;;9.63;9.30;;;22.40;78.60;;;;;;4972787;28;20475;-76
2022/05/26 09:56:12;;;;;;;10.23;9.83;;;22.20;79.80;;;;;;4972401;28;20452;-74
2022/05/26 09:58:42;;;;;;;10.50;9.70;;;22.00;81.50;;;;;;4972252;28;20483;-74
2022/05/26 10:01:36;;;;;;;10.00;9.50;;;21.70;82.60;;;;;;4972269;28;20462;-74
2022/05/26 10:04:14;;;;;;;10.10;9.70;;;21.70;82.90;;;;;;4972050;28;20487;-75
2022/05/26 10:06:46;;;;;;;9.60;9.30;;;21.80;83.30;;;;;;4972445;28;20495;-75
2022/05/26 10:09:21;;;;;;;9.70;9.30;;;22.00;83.00;;;;;;4972394;28;20502;-75
2022/05/26 10:12:01;;;;;;;9.60;9.30;;;21.90;83.20;;;;;;4971991;28;20455;-74
2022/05/26 10:14:44;;;;;;;10.70;10.20;;;21.90;83.80;;;;;;4972176;28;20455;-75
2022/05/26 10:17:19;;;;;;;9.90;9.50;;;22.10;83.50;;;;;;4972323;28;20447;-75
2022/05/26 10:20:02;;;;;;;9.37;9.07;;;22.10;83.60;;;;;;4971818;28;20487;-75
2022/05/26 10:22:38;;;;;;;8.70;8.30;;;21.70;83.90;;;;;;4971438;28;20451;-74
2022/05/26 10:25:13;;;;;;;9.37;9.07;;;21.90;83.50;;;;;;4971652;28;20466;-75
2022/05/26 10:27:53;;;;;;;10.80;10.20;;;22.00;82.90;;;;;;4971901;28;20470;-76
2022/05/26 10:30:28;;;;;;;9.87;9.37;;;22.10;83.70;;;;;;4971700;28;20462;-76
2022/05/26 10:33:11;;;;;;;9.73;9.40;;;22.40;82.80;;;;;;4971811;28;20510;-75
2022/05/26 10:35:48;;;;;;;9.80;9.40;;;22.90;81.20;;;;;;4971668;28;20502;-76
2022/05/26 10:38:28;;;;;;;9.93;9.63;;;23.40;80.10;;;;;;4971447;28;20463;-76
2022/05/26 10:41:02;;;;;;;10.30;9.90;;;23.50;77.40;;;;;;4971853;28;20443;-75
2022/05/26 10:43:36;;;;;;;9.40;8.90;;;23.40;78.70;;;;;;4971457;28;20460;-76
2022/05/26 10:46:06;;;;;;;9.40;9.00;;;23.80;79.00;;;;;;4971263;28;20495;-75
2022/05/26 10:48:39;;;;;;;10.23;9.83;;;24.10;77.80;;;;;;4971456;28;20973;-74
2022/05/26 10:51:12;;;;;;;10.20;9.80;;;24.10;77.90;;;;;;4971292;28;20459;-75
2022/05/26 10:53:47;;;;;;;9.40;9.10;;;24.50;77.10;;;;;;4971530;28;20455;-74
2022/05/26 10:56:21;;;;;;;10.20;9.70;;;24.90;75.80;;;;;;4971332;28;20447;-75
2022/05/26 10:58:52;;;;;;;9.73;9.43;;;25.00;74.50;;;;;;4971121;28;20941;-74
2022/05/26 11:01:30;;;;;;;11.23;10.10;;;24.60;75.40;;;;;;4971296;28;20463;-76
2022/05/26 11:04:08;;;;;;;10.07;9.57;;;23.90;77.20;;;;;;4971684;28;20463;-75
2022/05/26 11:06:39;;;;;;;10.63;10.23;;;23.30;79.40;;;;;;4971287;28;20488;-75
2022/05/26 11:09:13;;;;;;;13.50;11.03;;;23.10;80.50;;;;;;4971190;28;20455;-76
2022/05/26 11:11:44;;;;;;;9.60;9.20;;;22.70;81.50;;;;;;4971409;28;20877;-77
2022/05/26 11:19:50;;;;;;;10.47;9.90;;;22.30;82.70;;;;;;4971140;28;20427;-76
2022/05/26 11:22:19;;;;;;;9.87;9.47;;;22.20;83.10;;;;;;4971061;28;20475;-76
2022/05/26 11:24:48;;;;;;;10.10;9.70;;;22.30;83.30;;;;;;4971019;28;20447;-75
2022/05/26 11:27:22;;;;;;;10.00;9.50;;;22.20;83.40;;;;;;4970672;28;20496;-75
2022/05/26 11:29:55;;;;;;;9.50;9.20;;;22.40;82.40;;;;;;4970787;28;20507;-74
2022/05/26 11:38:07;;;;;;;9.67;9.37;;;24.50;77.60;;;;;;4975037;28;20479;-75
2022/05/26 11:40:37;;;;;;;10.57;9.97;;;24.70;76.20;;;;;;4974903;28;20526;-76
2022/05/26 11:43:07;;;;;;;9.93;9.53;;;24.60;76.60;;;;;;4975841;28;20551;-76
2022/05/26 11:45:37;;;;;;;10.23;9.83;;;24.30;76.50;;;;;;4975464;28;20756;-75
2022/05/26 11:48:06;;;;;;;10.17;9.87;;;24.10;77.90;;;;;;4975478;28;20464;-75
2022/05/26 11:50:58;;;;;;;9.90;9.40;;;24.00;78.40;;;;;;4975029;28;20541;-76
2022/05/26 11:53:44;;;;;;;9.47;9.07;;;23.90;78.10;;;;;;4975121;28;20938;-76
2022/05/26 11:56:39;;;;;;;10.97;10.57;;;23.90;78.10;;;;;;4974866;28;20947;-75
2022/05/26 11:59:47;;;;;;;10.30;9.80;;;23.90;78.40;;;;;;4965665;28;20522;-76
2022/05/26 12:02:34;;;;;;;10.33;9.93;;;23.30;79.00;;;;;;4974431;28;20447;-75
2022/05/26 12:05:48;;;;;;;10.70;10.10;;;23.40;80.20;;;;;;4974217;28;20459;-76
2022/05/26 12:08:29;;;;;;;10.67;10.07;;;24.20;77.30;;;;;;4939552;28;20466;-76
2022/05/26 12:10:59;;;;;;;10.33;9.93;;;24.40;76.70;;;;;;4974556;28;20439;-76
2022/05/26 12:13:35;;;;;;;10.33;9.93;;;24.40;76.50;;;;;;4972478;28;20447;-76
2022/05/26 12:16:35;;;;;;;10.90;10.50;;;24.50;76.70;;;;;;4974127;28;20443;-76
2022/05/26 12:19:04;;;;;;;10.33;9.93;;;24.60;74.50;;;;;;4954737;28;20470;-75
2022/05/26 12:21:44;;;;;;;9.90;9.50;;;23.90;76.00;;;;;;4973921;28;20494;-76
2022/05/26 12:24:49;;;;;;;9.90;9.60;;;23.90;77.60;;;;;;4974270;28;20448;-76
2022/05/26 12:27:57;;;;;;;10.33;9.83;;;23.90;78.50;;;;;;4973689;28;20487;-75
2022/05/26 12:30:39;;;;;;;10.97;10.33;;;23.40;78.60;;;;;;4973780;28;20965;-76
2022/05/26 12:33:30;;;;;;;9.20;8.90;;;23.20;80.10;;;;;;4973679;28;20447;-76
2022/05/26 12:36:03;;;;;;;10.60;10.20;;;22.60;81.50;;;;;;4974098;28;20461;-76
2022/05/26 12:38:40;;;;;;;10.10;9.70;;;22.30;82.90;;;;;;4973746;28;20938;-75
2022/05/26 12:41:15;;;;;;;10.37;9.77;;;22.20;84.10;;;;;;4973828;28;20501;-75
2022/05/26 12:44:15;;;;;;;10.03;9.60;;;22.10;85.20;;;;;;4973876;28;20475;-73
2022/05/26 12:46:57;;;;;;;10.40;9.90;;;21.70;87.60;;;;;;4971894;28;20498;-75
2022/05/26 12:49:42;;;;;;;10.40;9.77;;;21.80;88.20;;;;;;4973928;28;20459;-75
2022/05/26 12:52:17;;;;;;;10.70;10.27;;;22.00;88.40;;;;;;4974044;28;20455;-75
2022/05/26 12:54:50;;;;;;;10.90;10.50;;;22.00;87.60;;;;;;4973657;28;20451;-75
2022/05/26 12:57:23;;;;;;;11.00;10.60;;;22.10;88.60;;;;;;4973723;28;20506;-77
2022/05/26 12:59:51;;;;;;;11.20;10.70;;;22.60;88.20;;;;;;4973465;28;20463;-78
2022/05/26 13:02:30;;;;;;;10.10;9.70;;;23.20;86.10;;;;;;4973459;28;20451;-76
2022/05/26 13:04:57;;;;;;;11.07;10.57;;;24.00;84.30;;;;;;4973766;28;20463;-77
2022/05/26 13:07:24;;;;;;;11.80;11.30;;;25.20;80.80;;;;;;4973930;28;20491;-76
2022/05/26 13:09:54;;;;;;;11.03;10.53;;;26.40;76.50;;;;;;4973356;28;20819;-77
2022/05/26 13:12:24;;;;;;;11.40;10.90;;;26.90;73.70;;;;;;4973232;28;20447;-77
2022/05/26 13:14:54;;;;;;;10.90;10.50;;;26.90;73.10;;;;;;4973222;28;20843;-76
2022/05/26 13:17:24;;;;;;;11.17;10.77;;;26.70;72.70;;;;;;4973213;28;20447;-78
2022/05/26 13:19:52;;;;;;;11.00;10.50;;;26.40;74.30;;;;;;4973158;28;20463;-77
2022/05/26 13:22:27;;;;;;;11.27;10.77;;;25.90;73.60;;;;;;4973030;28;20830;-76
2022/05/26 13:24:56;;;;;;;11.80;11.20;;;25.80;74.30;;;;;;4973400;28;20781;-75
2022/05/26 13:27:25;;;;;;;11.80;11.40;;;25.50;76.60;;;;;;4972991;28;20494;-77
2022/05/26 13:33:07;;;;;;;11.87;11.20;;;25.20;77.50;;;;;;4972824;28;20490;-78
2022/05/26 13:35:30;;;;;;;10.37;9.93;;;24.60;79.40;;;;;;4973259;28;20478;-77
2022/05/26 13:37:57;;;;;;;11.60;11.10;;;24.10;80.40;;;;;;4973234;28;20974;-76
2022/05/26 13:40:28;;;;;;;11.50;11.10;;;23.70;82.50;;;;;;4972899;28;20867;-76
2022/05/26 13:42:56;;;;;;;11.50;10.90;;;23.60;83.50;;;;;;4973213;28;20550;-75
2022/05/26 13:45:28;;;;;;;12.53;12.03;;;23.50;83.80;;;;;;4972511;28;20519;-77
2022/05/26 13:48:28;;;;;;;10.43;9.93;;;23.10;85.20;;;;;;4972728;28;20494;-76
2022/05/26 13:51:01;;;;;;;11.10;10.60;;;23.00;85.10;;;;;;4972784;28;20448;-75
2022/05/26 13:53:28;;;;;;;10.03;9.63;;;22.90;86.00;;;;;;4972806;28;20502;-77
2022/05/26 13:55:58;;;;;;;10.90;10.30;;;23.20;86.60;;;;;;4972035;28;20439;-76
2022/05/26 13:58:27;;;;;;;11.13;10.73;;;23.30;85.20;;;;;;4972502;28;20448;-76
2022/05/26 14:01:01;;;;;;;11.47;10.77;;;23.30;85.80;;;;;;4972460;28;20485;-77
2022/05/26 14:03:31;;;;;;;10.43;10.13;;;23.50;85.40;;;;;;4972684;28;20455;-77
2022/05/26 14:06:00;;;;;;;10.57;10.17;;;23.60;84.50;;;;;;4972496;28;20529;-77
2022/05/26 14:08:27;;;;;;;10.30;9.83;;;23.70;84.80;;;;;;4972379;28;20491;-79
2022/05/26 14:10:56;;;;;;;10.83;10.43;;;23.90;84.40;;;;;;4972353;28;20444;-77
2022/05/26 14:13:30;;;;;;;11.50;10.90;;;24.00;84.30;;;;;;4972125;28;20462;-78
2022/05/26 14:16:19;;;;;;;11.60;11.20;;;24.50;83.70;;;;;;4970760;28;20456;-77
2022/05/26 14:18:49;;;;;;;12.13;11.63;;;24.50;83.30;;;;;;4972208;28;20821;-78
2022/05/26 14:21:24;;;;;;;10.47;10.00;;;24.40;82.70;;;;;;4971880;28;20455;-78
2022/05/26 14:23:56;;;;;;;11.97;11.47;;;24.40;82.70;;;;;;4971989;28;20562;-77
2022/05/26 14:26:30;;;;;;;10.23;9.90;;;24.60;82.90;;;;;;4971886;28;20460;-76
2022/05/26 14:28:57;;;;;;;10.17;9.67;;;24.90;81.40;;;;;;4972076;28;20467;-76
2022/05/26 14:31:28;;;;;;;11.20;10.47;;;25.30;80.30;;;;;;4971880;28;20476;-76
2022/05/26 14:34:02;;;;;;;11.23;10.47;;;25.00;78.80;;;;;;4972077;28;20947;-77
2022/05/26 14:36:30;;;;;;;11.87;11.37;;;24.60;80.30;;;;;;4972011;28;20825;-75
2022/05/26 14:38:57;;;;;;;10.13;9.73;;;24.90;80.00;;;;;;4971934;28;20462;-76
2022/05/26 14:41:25;;;;;;;13.07;12.27;;;25.10;79.70;;;;;;4971905;28;20444;-77
2022/05/26 14:43:58;;;;;;;11.70;11.10;;;25.30;78.30;;;;;;4971538;28;20475;-76
2022/05/26 14:46:26;;;;;;;10.93;10.53;;;25.10;77.70;;;;;;4971516;28;20519;-78
2022/05/26 14:48:53;;;;;;;11.00;10.50;;;24.30;79.50;;;;;;4971510;28;20833;-77
2022/05/26 14:51:22;;;;;;;11.87;11.27;;;24.50;79.70;;;;;;4971636;28;20464;-75
2022/05/26 14:56:33;;;;;;;11.47;10.97;;;25.10;77.30;;;;;;4971469;28;20430;-76
2022/05/26 14:58:59;;;;;;;11.27;10.57;;;25.30;76.60;;;;;;4971513;28;20857;-76
2022/05/26 15:01:27;;;;;;;10.87;10.37;;;25.30;77.00;;;;;;4971478;28;20459;-76
2022/05/26 15:03:54;;;;;;;11.00;10.50;;;25.20;77.40;;;;;;4971380;28;20515;-75
2022/05/26 15:06:21;;;;;;;11.03;10.63;;;24.70;78.00;;;;;;4971133;28;20448;-76
2022/05/26 15:08:48;;;;;;;10.40;10.10;;;23.90;79.70;;;;;;4970983;28;20840;-76
2022/05/26 15:11:16;;;;;;;10.80;10.20;;;23.40;81.20;;;;;;4971326;28;20498;-77
2022/05/26 15:13:44;;;;;;;10.70;10.20;;;23.10;81.30;;;;;;4971299;28;20458;-78
2022/05/26 15:16:13;;;;;;;10.70;10.30;;;22.90;81.50;;;;;;4971714;28;20479;-75
2022/05/26 15:18:42;;;;;;;11.03;10.63;;;22.70;81.50;;;;;;4969461;28;20444;-76
2022/05/26 15:21:09;;;;;;;10.70;10.30;;;22.60;82.40;;;;;;4970971;28;20904;-76
2022/05/26 15:23:36;;;;;;;10.63;10.23;;;22.50;82.00;;;;;;4970880;28;20466;-74
2022/05/26 15:26:12;;;;;;;11.10;10.70;;;22.30;82.70;;;;;;4970723;28;20997;-75
2022/05/26 15:28:42;;;;;;;10.93;10.53;;;22.50;83.30;;;;;;4970923;28;20487;-74
2022/05/26 15:31:10;;;;;;;12.73;11.60;;;22.60;82.10;;;;;;4970995;28;20456;-74
2022/05/26 15:33:37;;;;;;;10.60;10.30;;;22.70;81.70;;;;;;4970863;28;20454;-74
2022/05/26 15:36:07;;;;;;;10.80;10.30;;;22.80;81.70;;;;;;4970845;28;20797;-74
2022/05/26 15:38:36;;;;;;;11.97;11.50;;;22.80;82.20;;;;;;4970965;28;20518;-74
2022/05/26 15:41:04;;;;;;;11.40;10.90;;;22.90;82.00;;;;;;4970647;28;20456;-75
2022/05/26 15:43:30;;;;;;;10.93;10.47;;;23.10;81.10;;;;;;4970437;28;20458;-74
2022/05/26 15:45:59;;;;;;;10.90;10.50;;;23.20;80.40;;;;;;4970891;28;20495;-74
2022/05/26 15:48:26;;;;;;;10.80;10.40;;;23.30;80.50;;;;;;4970930;28;20488;-75
2022/05/26 15:50:53;;;;;;;11.30;10.80;;;23.10;80.20;;;;;;4970640;28;20930;-74
2022/05/26 15:53:21;;;;;;;11.60;10.90;;;23.30;81.70;;;;;;4970655;28;20522;-74
2022/05/26 15:55:48;;;;;;;11.10;10.60;;;23.40;82.00;;;;;;4970555;28;20642;-75
2022/05/26 15:58:20;;;;;;;10.93;10.43;;;23.30;82.70;;;;;;4970571;28;20459;-74
2022/05/26 16:00:47;;;;;;;10.43;9.93;;;23.20;82.70;;;;;;4970868;28;20463;-76
2022/05/26 16:03:17;;;;;;;10.50;9.80;;;22.80;82.40;;;;;;4970680;28;20950;-75
2022/05/26 16:05:43;;;;;;;9.60;9.20;;;22.30;84.20;;;;;;4968767;28;20542;-74
2022/05/26 16:08:10;;;;;;;10.30;9.90;;;22.10;85.60;;;;;;4970956;28;20515;-77
2022/05/26 16:10:39;;;;;;;10.50;10.10;;;22.20;86.30;;;;;;4970871;28;21032;-75
2022/05/26 16:13:06;;;;;;;10.07;9.73;;;22.10;86.50;;;;;;4970649;28;20793;-79
2022/05/26 16:15:33;;;;;;;10.00;9.60;;;22.20;86.10;;;;;;4970491;28;21017;-78
2022/05/26 16:18:02;;;;;;;10.40;10.00;;;22.20;86.40;;;;;;4970461;28;20448;-77
2022/05/26 16:20:29;;;;;;;10.27;9.80;;;22.20;87.30;;;;;;4973116;28;20876;-80
2022/05/26 16:22:56;;;;;;;10.43;10.00;;;22.40;88.00;;;;;;4974450;28;20960;-76
2022/05/26 16:25:25;;;;;;;10.10;9.70;;;22.40;87.80;;;;;;4974234;28;20509;-76
2022/05/26 16:27:53;;;;;;;10.63;10.13;;;22.40;87.70;;;;;;4972149;28;20491;-78
2022/05/26 16:30:23;;;;;;;10.43;9.93;;;22.60;88.00;;;;;;4974146;28;20451;-77
2022/05/26 16:32:54;;;;;;;10.53;10.00;;;22.60;88.20;;;;;;4973998;28;20444;-77
2022/05/26 16:38:07;;;;;;;9.53;9.13;;;22.40;88.80;;;;;;4974211;28;20431;-76
2022/05/26 16:40:33;;;;;;;10.93;10.23;;;22.40;88.20;;;;;;4973785;28;20452;-77
2022/05/26 16:43:05;;;;;;;10.50;10.20;;;22.30;89.20;;;;;;4973583;28;20799;-76
2022/05/26 16:45:32;;;;;;;11.80;11.30;;;22.10;88.30;;;;;;4973479;28;20498;-77
2022/05/26 16:47:59;;;;;;;10.57;10.17;;;22.00;88.60;;;;;;4973657;28;20483;-74
2022/05/26 16:50:27;;;;;;;10.20;9.90;;;22.00;88.60;;;;;;4973714;28;20459;-75
2022/05/26 16:52:55;;;;;;;9.37;9.07;;;22.10;89.10;;;;;;4973454;28;20456;-75
2022/05/26 16:55:22;;;;;;;10.70;10.30;;;22.10;88.90;;;;;;4973336;28;20542;-75
2022/05/26 16:57:49;;;;;;;10.90;10.50;;;22.00;88.80;;;;;;4973331;28;20447;-75
2022/05/26 17:00:20;;;;;;;11.20;10.50;;;21.90;89.20;;;;;;4973394;28;20471;-75
2022/05/26 17:02:46;;;;;;;10.43;10.03;;;22.00;89.40;;;;;;4973420;28;20546;-74
2022/05/26 17:05:14;;;;;;;10.00;9.70;;;22.20;89.10;;;;;;4973510;28;20447;-76
2022/05/26 17:07:44;;;;;;;9.93;9.53;;;22.30;88.30;;;;;;4973481;28;20483;-75
2022/05/26 17:10:13;;;;;;;11.30;10.70;;;22.20;86.70;;;;;;4973611;28;20514;-75
2022/05/26 17:21:01;;;;;;;10.07;9.77;;;21.90;88.40;;;;;;4973491;28;20431;-75
2022/05/26 17:23:31;;;;;;;10.40;10.00;;;21.90;88.50;;;;;;4973300;28;20463;-75
2022/05/26 17:25:58;;;;;;;10.90;10.40;;;21.80;88.50;;;;;;4973101;28;20462;-75